Time;durP1;ratioP1;P1;durP2;ratioP2;P2;SDS_P1;SDS_P2;PMS_P1;PMS_P2;Temp;Humidity;BMP_temperature;BMP_pressure;BME280_temperature;BME280_humidity;BME280_pressure;Samples;Min_cycle;Max_cycle;Signal;HPM_P1;HPM_P2
2022/07/13 00:01:41;;;;;;;1.12;0.10;;;;;;;15.28;100.00;98927.20;1709718;82;21195;-50
2022/07/13 00:04:08;;;;;;;0.28;0.20;;;;;;;15.28;100.00;98931.27;1674990;84;21060;-51
2022/07/13 00:06:35;;;;;;;1.98;0.20;;;;;;;15.27;100.00;98933.61;1667630;84;21438;-52
2022/07/13 00:09:02;;;;;;;0.30;0.10;;;;;;;15.25;100.00;98924.73;1705098;82;21089;-50
2022/07/13 00:11:29;;;;;;;0.10;0.10;;;;;;;15.24;100.00;98922.52;1715963;82;21132;-50
2022/07/13 00:13:56;;;;;;;1.72;0.10;;;;;;;15.20;100.00;98920.19;1705382;82;21122;-51
2022/07/13 00:16:22;;;;;;;0.95;0.20;;;;;;;15.18;100.00;98913.53;1705526;82;21121;-52
2022/07/13 00:18:50;;;;;;;1.47;0.10;;;;;;;15.18;100.00;98918.95;1707411;82;22258;-49
2022/07/13 00:21:17;;;;;;;0.60;0.10;;;;;;;15.18;100.00;98914.02;1705311;82;21022;-52
2022/07/13 00:23:43;;;;;;;0.50;0.13;;;;;;;15.19;100.00;98911.68;1672029;83;21619;-51
2022/07/13 00:26:11;;;;;;;0.28;0.10;;;;;;;15.19;100.00;98900.84;1707237;82;21128;-52
2022/07/13 00:28:38;;;;;;;0.13;0.10;;;;;;;15.18;100.00;98898.62;1676803;84;21089;-50
2022/07/13 00:31:04;;;;;;;0.10;0.10;;;;;;;15.18;100.00;98890.97;1673392;84;21955;-52
2022/07/13 00:33:31;;;;;;;0.10;0.10;;;;;;;15.16;100.00;98885.67;1703146;82;21105;-51
2022/07/13 00:35:57;;;;;;;0.85;0.13;;;;;;;15.14;100.00;98883.08;1707224;82;21419;-51
2022/07/13 00:38:23;;;;;;;0.50;0.10;;;;;;;15.11;100.00;98881.99;1701629;82;21409;-52
2022/07/13 00:40:50;;;;;;;0.05;0.05;;;;;;;15.11;100.00;98884.70;1708604;82;21038;-49
2022/07/13 00:43:17;;;;;;;0.10;0.10;;;;;;;15.11;100.00;98882.48;1710013;82;21133;-52
2022/07/13 00:45:44;;;;;;;0.10;0.10;;;;;;;15.10;100.00;98877.55;1688990;82;21691;-52
2022/07/13 00:48:10;;;;;;;0.62;0.10;;;;;;;15.12;100.00;98870.17;1707412;82;21459;-51
2022/07/13 00:50:37;;;;;;;0.20;0.10;;;;;;;15.14;100.00;98863.27;1703937;82;21110;-50
2022/07/13 00:53:05;;;;;;;3.08;0.20;;;;;;;15.17;100.00;98860.78;1713708;82;21054;-51
2022/07/13 00:55:32;;;;;;;0.20;0.10;;;;;;;15.17;100.00;98861.65;1708021;82;21281;-50
2022/07/13 00:57:59;;;;;;;0.15;0.15;;;;;;;15.18;100.00;98856.60;1715630;82;21528;-51
2022/07/13 01:00:25;;;;;;;0.10;0.10;;;;;;;15.16;100.00;98851.79;1719306;81;21077;-52
2022/07/13 01:02:53;;;;;;;0.20;0.10;;;;;;;15.15;100.00;98867.19;1677500;83;21045;-51
2022/07/13 01:05:19;;;;;;;0.62;0.10;;;;;;;15.13;100.00;98856.13;1685316;83;21044;-51
2022/07/13 01:07:46;;;;;;;0.65;0.20;;;;;;;15.10;100.00;98849.58;1685627;83;22008;-49
2022/07/13 01:10:14;;;;;;;0.75;0.33;;;;;;;15.07;100.00;98852.04;1684123;83;21049;-50
2022/07/13 01:12:40;;;;;;;1.50;0.10;;;;;;;15.05;100.00;98847.27;1667579;84;21097;-52
2022/07/13 01:15:09;;;;;;;0.20;0.20;;;;;;;15.06;100.00;98841.31;1671583;84;21624;-50
2022/07/13 01:17:37;;;;;;;0.10;0.10;;;;;;;15.05;100.00;98840.48;1671364;84;21161;-51
2022/07/13 01:20:05;;;;;;;0.20;0.10;;;;;;;15.06;100.00;98834.05;1674855;84;22321;-50
2022/07/13 01:22:36;;;;;;;1.65;0.10;;;;;;;15.06;100.00;98837.25;1672636;84;21003;-51
2022/07/13 01:25:05;;;;;;;0.20;0.10;;;;;;;15.06;100.00;98830.48;1674908;83;21061;-52
2022/07/13 01:27:33;;;;;;;0.70;0.20;;;;;;;15.07;100.00;98829.49;1683212;83;20926;-50
2022/07/13 01:30:00;;;;;;;1.02;0.10;;;;;;;15.06;100.00;98829.98;1679474;83;20927;-52
2022/07/13 01:32:27;;;;;;;0.47;0.20;;;;;;;15.03;100.00;98819.41;1720951;81;21134;-50
2022/07/13 01:34:53;;;;;;;0.20;0.10;;;;;;;15.02;100.00;98823.59;1716405;81;20915;-51
2022/07/13 01:37:19;;;;;;;1.22;0.10;;;;;;;15.01;100.00;98819.16;1718154;81;20910;-49
2022/07/13 01:39:46;;;;;;;1.60;0.10;;;;;;;14.98;100.00;98818.04;1721548;81;21522;-50
2022/07/13 01:42:13;;;;;;;0.10;0.10;;;;;;;15.00;100.00;98813.37;1714326;81;21703;-51
2022/07/13 01:44:39;;;;;;;0.35;0.10;;;;;;;15.00;100.00;98818.78;1713225;81;21803;-53
2022/07/13 01:47:09;;;;;;;0.95;0.40;;;;;;;15.00;100.00;98821.50;1711589;81;21045;-51
2022/07/13 01:49:38;;;;;;;1.02;0.20;;;;;;;15.00;100.00;98815.58;1685341;83;20990;-51
2022/07/13 01:52:05;;;;;;;0.72;0.20;;;;;;;14.99;100.00;98807.58;1715975;81;20919;-52
2022/07/13 01:54:31;;;;;;;0.55;0.17;;;;;;;14.98;100.00;98812.63;1716291;81;21394;-53
2022/07/13 01:56:58;;;;;;;3.20;0.10;;;;;;;14.96;100.00;98809.20;1717407;81;22480;-53
2022/07/13 01:59:24;;;;;;;0.33;0.20;;;;;;;14.94;100.00;98804.39;1711773;81;21042;-52
2022/07/13 02:01:51;;;;;;;0.30;0.10;;;;;;;14.90;100.00;98805.11;1718351;81;21061;-52
2022/07/13 02:04:19;;;;;;;0.15;0.10;;;;;;;14.87;100.00;98802.67;1715745;82;21370;-52
2022/07/13 02:06:45;;;;;;;0.33;0.13;;;;;;;14.85;100.00;98799.71;1712651;82;21483;-53
2022/07/13 02:09:12;;;;;;;0.10;0.10;;;;;;;14.82;100.00;98796.75;1714644;82;21147;-52
2022/07/13 02:11:40;;;;;;;1.52;0.20;;;;;;;14.82;100.00;98794.03;1715598;82;21370;-54
2022/07/13 02:14:06;;;;;;;0.95;0.10;;;;;;;14.82;100.00;98798.59;1718676;82;21061;-53
2022/07/13 02:16:33;;;;;;;1.95;0.10;;;;;;;14.79;100.00;98794.30;1713531;82;21110;-53
2022/07/13 02:18:59;;;;;;;0.70;0.10;;;;;;;14.76;100.00;98793.19;1694554;82;21539;-53
2022/07/13 02:21:27;;;;;;;0.25;0.17;;;;;;;14.73;100.00;98784.80;1712777;82;21163;-53
2022/07/13 02:23:53;;;;;;;1.22;0.20;;;;;;;14.71;100.00;98785.45;1711183;82;21022;-53
2022/07/13 02:26:21;;;;;;;0.55;0.20;;;;;;;14.69;100.00;98786.05;1718098;82;22122;-51
2022/07/13 02:28:48;;;;;;;0.10;0.10;;;;;;;14.65;100.00;98788.63;1710360;82;21079;-52
2022/07/13 02:31:18;;;;;;;0.57;0.20;;;;;;;14.63;100.00;98773.50;1711795;82;21045;-52
2022/07/13 02:33:44;;;;;;;0.50;0.17;;;;;;;14.59;100.00;98772.88;1714217;82;21462;-52
2022/07/13 02:36:11;;;;;;;0.55;0.10;;;;;;;14.56;100.00;98785.29;1709078;82;21063;-52
2022/07/13 02:38:37;;;;;;;0.20;0.10;;;;;;;14.52;100.00;98773.48;1711358;82;21061;-52
2022/07/13 02:41:04;;;;;;;0.75;0.15;;;;;;;14.49;100.00;98775.94;1715256;82;21089;-49
2022/07/13 02:43:31;;;;;;;0.20;0.17;;;;;;;14.47;100.00;98777.89;1714563;82;21418;-52
2022/07/13 02:45:57;;;;;;;0.47;0.10;;;;;;;14.45;100.00;98781.73;1676196;83;21555;-52
2022/07/13 02:48:23;;;;;;;0.30;0.10;;;;;;;14.43;100.00;98775.57;1716671;82;21049;-52
2022/07/13 02:50:50;;;;;;;1.80;0.10;;;;;;;14.42;100.00;98775.20;1713157;82;21043;-52
2022/07/13 02:53:17;;;;;;;0.15;0.10;;;;;;;14.40;100.00;98769.90;1677571;83;21104;-52
2022/07/13 02:55:43;;;;;;;0.72;0.20;;;;;;;14.38;100.00;98766.41;1713313;82;21035;-52
2022/07/13 02:58:10;;;;;;;0.25;0.10;;;;;;;14.36;100.00;98767.05;1679346;83;21579;-51
2022/07/13 03:00:37;;;;;;;0.40;0.20;;;;;;;14.34;100.00;98770.36;1673069;83;21398;-52
2022/07/13 03:03:03;;;;;;;0.10;0.10;;;;;;;14.32;100.00;98766.41;1713270;82;22265;-52
2022/07/13 03:05:30;;;;;;;2.58;0.10;;;;;;;14.32;100.00;98765.06;1716302;81;21126;-53
2022/07/13 03:07:57;;;;;;;0.50;0.10;;;;;;;14.29;100.00;98759.88;1705893;81;21057;-50
2022/07/13 03:10:24;;;;;;;1.67;0.20;;;;;;;14.28;100.00;98762.73;1717527;81;21240;-52
2022/07/13 03:12:52;;;;;;;0.50;0.13;;;;;;;14.28;100.00;98751.91;1718028;81;21054;-51
2022/07/13 03:15:19;;;;;;;0.30;0.20;;;;;;;14.27;100.00;98756.95;1710051;81;21077;-51
2022/07/13 03:18:24;;;;;;;0.40;0.17;;;;;;;14.29;100.00;98744.16;1798433;78;22679;-51
2022/07/13 03:20:52;;;;;;;0.45;0.20;;;;;;;14.26;100.00;98752.51;1764132;80;21086;-50
2022/07/13 03:23:18;;;;;;;0.10;0.10;;;;;;;14.26;100.00;98745.74;1762708;79;21006;-51
2022/07/13 03:25:46;;;;;;;0.10;0.10;;;;;;;14.26;100.00;98746.61;1768015;78;20965;-53
2022/07/13 03:28:13;;;;;;;4.83;0.10;;;;;;;14.24;100.00;98740.44;1766357;79;21045;-51
2022/07/13 03:30:40;;;;;;;0.20;0.10;;;;;;;14.24;100.00;98746.34;1766752;79;21085;-49
2022/07/13 03:33:07;;;;;;;0.62;0.10;;;;;;;14.23;100.00;98743.27;1765313;79;22067;-50
2022/07/13 03:35:34;;;;;;;1.55;0.10;;;;;;;14.22;100.00;98738.34;1764430;79;21127;-50
2022/07/13 03:38:00;;;;;;;0.53;0.10;;;;;;;14.23;100.00;98744.63;1769319;79;20972;-51
2022/07/13 03:40:28;;;;;;;0.30;0.10;;;;;;;14.22;100.00;98739.70;1770064;79;20988;-50
2022/07/13 03:42:56;;;;;;;0.28;0.10;;;;;;;14.22;100.00;98735.64;1706151;82;21053;-50
2022/07/13 03:45:23;;;;;;;0.20;0.10;;;;;;;14.22;100.00;98732.93;1684089;81;21627;-51
2022/07/13 03:47:49;;;;;;;0.78;0.10;;;;;;;14.23;100.00;98727.89;1731510;81;21135;-51
2022/07/13 03:50:17;;;;;;;0.10;0.10;;;;;;;14.22;100.00;98722.10;1708607;83;21421;-50
2022/07/13 03:52:44;;;;;;;3.50;0.10;;;;;;;14.22;100.00;98722.10;1707735;83;21117;-51
2022/07/13 03:55:12;;;;;;;0.10;0.10;;;;;;;14.22;100.00;98723.45;1705584;82;21486;-50
2022/07/13 03:57:39;;;;;;;0.85;0.13;;;;;;;14.22;100.00;98721.24;1687366;82;21526;-49
2022/07/13 04:00:08;;;;;;;1.02;0.05;;;;;;;14.22;100.00;98708.57;1691454;83;22135;-50
2022/07/13 04:02:38;;;;;;;0.47;0.10;;;;;;;14.24;100.00;98732.33;1686519;83;21073;-51
2022/07/13 04:05:07;;;;;;;0.62;0.10;;;;;;;14.28;100.00;98722.13;1675717;84;21125;-51
2022/07/13 04:07:36;;;;;;;0.53;0.17;;;;;;;14.29;100.00;98718.44;1700215;82;21444;-51
2022/07/13 04:10:04;;;;;;;1.55;0.10;;;;;;;14.30;100.00;98719.65;1694370;83;21142;-51
2022/07/13 04:12:31;;;;;;;0.55;0.10;;;;;;;14.33;100.00;98717.20;1683897;82;21268;-49
2022/07/13 04:14:59;;;;;;;0.10;0.10;;;;;;;14.33;100.00;98715.36;1687961;82;21070;-51
2022/07/13 04:17:26;;;;;;;0.10;0.10;;;;;;;14.34;100.00;98711.66;1677143;84;21089;-51
2022/07/13 04:19:52;;;;;;;1.55;0.10;;;;;;;14.35;100.00;98709.33;1669285;84;21145;-51
2022/07/13 04:22:20;;;;;;;0.85;0.15;;;;;;;14.37;100.00;98712.75;1676639;83;21074;-52
2022/07/13 04:24:47;;;;;;;0.10;0.10;;;;;;;14.39;100.00;98704.06;1722207;82;21504;-51
2022/07/13 04:27:14;;;;;;;0.57;0.10;;;;;;;14.40;100.00;98711.69;1725976;80;20983;-51
2022/07/13 04:29:41;;;;;;;0.10;0.10;;;;;;;14.40;100.00;98706.27;1722713;82;20963;-51
2022/07/13 04:32:07;;;;;;;0.10;0.10;;;;;;;14.41;100.00;98709.84;1722663;82;21373;-51
2022/07/13 04:34:34;;;;;;;0.28;0.10;;;;;;;14.42;100.00;98703.45;1724673;81;21347;-50
2022/07/13 04:37:01;;;;;;;1.02;0.20;;;;;;;14.44;100.00;98698.78;1719865;82;21532;-52
2022/07/13 04:39:28;;;;;;;0.20;0.10;;;;;;;14.46;100.00;98695.47;1719576;82;21030;-51
2022/07/13 04:41:55;;;;;;;3.22;0.17;;;;;;;14.48;100.00;98690.27;1719994;82;21035;-51
2022/07/13 04:44:22;;;;;;;0.47;0.10;;;;;;;14.50;100.00;98695.08;1728218;80;20979;-51
2022/07/13 04:46:48;;;;;;;0.35;0.10;;;;;;;14.52;100.00;98685.48;1668778;84;21066;-50
2022/07/13 04:49:19;;;;;;;0.45;0.15;;;;;;;14.54;100.00;98693.86;1668816;84;21822;-52
2022/07/13 04:51:50;;;;;;;0.30;0.10;;;;;;;14.56;100.00;98692.36;1717186;82;20966;-50
2022/07/13 04:54:18;;;;;;;0.20;0.10;;;;;;;14.56;100.00;98691.86;1721393;82;21058;-52
2022/07/13 04:56:44;;;;;;;0.10;0.10;;;;;;;14.57;100.00;98684.61;1723347;81;20943;-49
2022/07/13 04:59:12;;;;;;;0.10;0.10;;;;;;;14.59;100.00;98682.64;1714881;81;21118;-53
2022/07/13 05:01:39;;;;;;;0.10;0.10;;;;;;;14.62;100.00;98683.75;1712403;82;21148;-52
2022/07/13 05:04:05;;;;;;;0.15;0.10;;;;;;;14.65;100.00;98684.84;1727144;82;21423;-52
2022/07/13 05:06:32;;;;;;;0.55;0.10;;;;;;;14.68;100.00;98677.34;1719367;82;21043;-51
2022/07/13 05:08:59;;;;;;;0.10;0.10;;;;;;;14.71;100.00;98683.00;1720952;82;21102;-52
2022/07/13 05:11:26;;;;;;;1.45;0.00;;;;;;;14.74;100.00;98678.18;1716293;82;21050;-51
2022/07/13 05:13:54;;;;;;;0.17;0.00;;;;;;;14.78;100.00;98672.52;1717636;82;21877;-51
2022/07/13 05:16:21;;;;;;;0.20;0.00;;;;;;;14.78;100.00;98681.51;1721444;82;21568;-51
2022/07/13 05:18:48;;;;;;;0.28;0.10;;;;;;;14.81;100.00;98682.59;1720933;82;21086;-50
2022/07/13 05:21:19;;;;;;;0.20;0.10;;;;;;;14.82;100.00;98684.31;1727729;82;21125;-50
2022/07/13 05:23:46;;;;;;;0.10;0.10;;;;;;;14.82;100.00;98682.97;1718273;80;21112;-50
2022/07/13 05:26:12;;;;;;;0.30;0.10;;;;;;;14.81;100.00;98681.23;1722589;82;20991;-53
2022/07/13 05:28:39;;;;;;;0.20;0.10;;;;;;;14.82;100.00;98686.16;1701654;82;21069;-51
2022/07/13 05:31:08;;;;;;;0.10;0.10;;;;;;;14.80;100.00;98678.16;1727034;82;21069;-52
2022/07/13 05:33:35;;;;;;;0.35;0.10;;;;;;;14.80;100.00;98682.22;1645022;83;21078;-51
2022/07/13 05:36:05;;;;;;;0.10;0.10;;;;;;;14.81;100.00;98676.31;1727752;82;21045;-50
2022/07/13 05:38:32;;;;;;;1.65;0.10;;;;;;;14.80;100.00;98682.22;1728001;82;21138;-52
2022/07/13 05:40:59;;;;;;;0.10;0.10;;;;;;;14.81;100.00;98675.82;1670696;83;21408;-52
2022/07/13 05:43:26;;;;;;;0.23;0.10;;;;;;;14.82;100.00;98680.25;1679644;83;21077;-53
2022/07/13 05:45:52;;;;;;;0.10;0.10;;;;;;;14.79;100.00;98681.02;1682250;83;21117;-52
2022/07/13 05:48:19;;;;;;;0.10;0.10;;;;;;;14.75;100.00;98674.48;1676603;83;21088;-50
2022/07/13 05:50:45;;;;;;;1.37;0.10;;;;;;;14.78;100.00;98673.88;1679733;83;21562;-50
2022/07/13 05:53:13;;;;;;;0.10;0.10;;;;;;;14.75;100.00;98676.33;1677120;83;20978;-53
2022/07/13 05:55:41;;;;;;;0.10;0.10;;;;;;;14.74;100.00;98677.31;1649126;84;21150;-50
2022/07/13 05:58:07;;;;;;;1.17;0.10;;;;;;;14.74;100.00;98670.05;1682570;84;21591;-50
2022/07/13 06:00:34;;;;;;;0.30;0.10;;;;;;;14.74;100.00;98673.25;1679369;84;21067;-51
2022/07/13 06:03:00;;;;;;;0.10;0.10;;;;;;;14.75;100.00;98665.01;1682655;83;21187;-51
2022/07/13 06:05:27;;;;;;;2.95;0.10;;;;;;;14.75;100.00;98671.78;1682268;83;21475;-52
2022/07/13 06:07:55;;;;;;;0.30;0.10;;;;;;;14.74;100.00;98678.18;1680615;84;21139;-52
2022/07/13 06:10:21;;;;;;;0.10;0.10;;;;;;;14.74;100.00;98669.19;1678868;84;22146;-52
2022/07/13 06:12:48;;;;;;;0.10;0.10;;;;;;;14.72;100.00;98667.09;1676818;84;21153;-50
2022/07/13 06:15:14;;;;;;;0.28;0.20;;;;;;;14.72;100.00;98663.03;1726638;80;21140;-50
2022/07/13 06:17:42;;;;;;;0.10;0.10;;;;;;;14.72;100.00;98661.19;1725529;80;21046;-50
2022/07/13 06:20:10;;;;;;;0.20;0.10;;;;;;;14.72;100.00;98664.38;1723932;81;21046;-52
2022/07/13 06:22:37;;;;;;;0.40;0.10;;;;;;;14.73;100.00;98662.05;1726061;82;21134;-52
2022/07/13 06:25:05;;;;;;;0.10;0.10;;;;;;;14.74;100.00;98665.99;1725094;82;21511;-51
2022/07/13 06:27:32;;;;;;;0.30;0.10;;;;;;;14.77;100.00;98664.89;1722797;82;21127;-51
2022/07/13 06:29:58;;;;;;;0.17;0.10;;;;;;;14.80;100.00;98668.67;1726774;82;21556;-50
2022/07/13 06:32:25;;;;;;;0.78;0.17;;;;;;;14.83;100.00;98666.22;1723240;82;21117;-52
2022/07/13 06:34:51;;;;;;;0.25;0.13;;;;;;;14.85;100.00;98660.19;1723233;82;21133;-49
2022/07/13 06:37:18;;;;;;;0.60;0.10;;;;;;;14.87;100.00;98660.93;1728951;80;21508;-48
2022/07/13 06:39:44;;;;;;;0.10;0.10;;;;;;;14.87;100.00;98659.08;1724751;81;21615;-52
2022/07/13 06:42:11;;;;;;;0.20;0.10;;;;;;;14.91;100.00;98659.66;1726999;82;21410;-52
2022/07/13 06:44:37;;;;;;;0.10;0.10;;;;;;;14.91;100.00;98659.66;1724805;82;21093;-52
2022/07/13 06:47:05;;;;;;;1.47;0.20;;;;;;;14.90;100.00;98663.36;1723691;81;21539;-52
2022/07/13 06:49:32;;;;;;;0.30;0.10;;;;;;;14.90;100.00;98661.52;1723758;80;21730;-49
2022/07/13 06:51:59;;;;;;;0.25;0.10;;;;;;;14.92;100.00;98662.25;1721414;82;21179;-49
2022/07/13 06:54:25;;;;;;;0.23;0.10;;;;;;;14.93;100.00;98667.18;1727644;80;21505;-50
2022/07/13 06:56:51;;;;;;;0.20;0.10;;;;;;;14.95;100.00;98662.50;1725567;81;21614;-50
2022/07/13 06:59:19;;;;;;;0.10;0.10;;;;;;;14.96;100.00;98659.67;1726611;81;21193;-51
2022/07/13 07:01:46;;;;;;;0.43;0.20;;;;;;;14.98;100.00;98667.65;1727902;80;21519;-49
2022/07/13 07:04:12;;;;;;;0.10;0.10;;;;;;;15.00;100.00;98670.61;1667732;84;21277;-48
2022/07/13 07:06:39;;;;;;;0.10;0.10;;;;;;;15.01;100.00;98670.97;1681932;84;21551;-48
2022/07/13 07:09:06;;;;;;;0.10;0.10;;;;;;;15.01;100.00;98670.97;1666479;84;21305;-49
2022/07/13 07:11:33;;;;;;;0.10;0.10;;;;;;;15.03;100.00;98674.92;1669768;83;21064;-50
2022/07/13 07:13:59;;;;;;;0.10;0.10;;;;;;;15.05;100.00;98674.30;1682413;84;20892;-51
2022/07/13 07:16:26;;;;;;;0.20;0.10;;;;;;;15.07;100.00;98668.23;1677630;84;21129;-52
2022/07/13 07:18:52;;;;;;;0.10;0.10;;;;;;;15.11;100.00;98667.87;1662277;84;21137;-51
2022/07/13 07:21:18;;;;;;;1.30;0.10;;;;;;;15.15;100.00;98667.96;1655908;84;21102;-48
2022/07/13 07:23:47;;;;;;;0.10;0.10;;;;;;;15.18;100.00;98672.27;1669718;84;21093;-48
2022/07/13 07:26:13;;;;;;;1.55;0.10;;;;;;;15.21;100.00;98670.67;1703416;82;21044;-50
2022/07/13 07:28:40;;;;;;;0.10;0.10;;;;;;;15.25;100.00;98664.48;1706427;82;21560;-51
2022/07/13 07:31:06;;;;;;;0.10;0.10;;;;;;;15.27;100.00;98662.50;1709740;82;21504;-50
2022/07/13 07:33:33;;;;;;;0.13;0.10;;;;;;;15.28;100.00;98658.81;1702128;82;21021;-49
2022/07/13 07:35:59;;;;;;;0.10;0.10;;;;;;;15.28;100.00;98662.38;1710061;82;21406;-49
2022/07/13 07:38:26;;;;;;;0.10;0.10;;;;;;;15.30;100.00;98659.05;1701488;82;21085;-51
2022/07/13 07:40:53;;;;;;;0.10;0.03;;;;;;;15.32;100.00;98663.83;1715300;82;21235;-51
2022/07/13 07:43:19;;;;;;;0.10;0.10;;;;;;;15.32;100.00;98655.69;1701620;82;20902;-49
2022/07/13 07:45:45;;;;;;;0.20;0.10;;;;;;;15.34;100.00;98652.86;1707457;82;21389;-49
2022/07/13 07:48:12;;;;;;;0.40;0.40;;;;;;;15.36;100.00;98653.10;1706632;82;21449;-50
2022/07/13 07:50:38;;;;;;;0.10;0.10;;;;;;;15.38;100.00;98660.62;1710575;82;21057;-50
2022/07/13 07:53:04;;;;;;;0.08;0.00;;;;;;;15.40;100.00;98658.61;1705366;82;21194;-50
2022/07/13 07:55:31;;;;;;;0.35;0.17;;;;;;;15.40;100.00;98663.17;1707506;82;21026;-50
2022/07/13 07:57:58;;;;;;;0.13;0.10;;;;;;;15.42;100.00;98659.84;1704070;82;21129;-50
2022/07/13 08:00:24;;;;;;;0.20;0.10;;;;;;;15.45;100.00;98662.30;1705938;82;21428;-49
2022/07/13 08:02:51;;;;;;;0.10;0.10;;;;;;;15.47;100.00;98669.33;1653022;85;21399;-49
2022/07/13 08:05:18;;;;;;;0.10;0.10;;;;;;;15.50;100.00;98666.83;1638230;85;21128;-48
2022/07/13 08:07:45;;;;;;;1.35;0.10;;;;;;;15.53;100.00;98666.58;1657561;84;21027;-50
2022/07/13 08:10:12;;;;;;;0.10;0.10;;;;;;;15.53;100.00;98672.00;1666615;85;21142;-51
2022/07/13 08:12:39;;;;;;;1.50;0.10;;;;;;;15.49;100.00;98671.88;1673193;85;21054;-49
2022/07/13 08:15:08;;;;;;;0.10;0.10;;;;;;;15.49;100.00;98674.09;1667403;85;21547;-52
2022/07/13 08:17:37;;;;;;;0.10;0.10;;;;;;;15.52;100.00;98678.41;1705155;82;21135;-51
2022/07/13 08:20:04;;;;;;;0.28;0.10;;;;;;;15.53;100.00;98685.56;1700725;82;21512;-51
2022/07/13 08:22:31;;;;;;;0.10;0.10;;;;;;;15.53;100.00;98689.63;1701246;82;21129;-49
2022/07/13 08:24:58;;;;;;;0.10;0.10;;;;;;;15.55;100.00;98686.33;1699739;82;21124;-49
2022/07/13 08:27:26;;;;;;;0.20;0.03;;;;;;;15.55;100.00;98671.91;1704502;82;21113;-53
2022/07/13 08:29:53;;;;;;;0.08;0.00;;;;;;;15.54;100.00;98675.11;1706657;82;21677;-52
2022/07/13 08:32:19;;;;;;;0.10;0.00;;;;;;;15.54;100.00;98679.19;1704208;82;21923;-51
2022/07/13 08:40:20;;;;;;;0.10;0.10;;;;;;;15.60;100.00;98680.50;1703900;82;20147;-50
2022/07/13 08:42:47;;;;;;;0.10;0.10;;;;;;;15.57;100.00;98684.85;1677722;82;21746;-52
2022/07/13 08:45:14;;;;;;;0.00;0.00;;;;;;;15.55;100.00;98687.69;1700050;82;21084;-51
2022/07/13 08:47:45;;;;;;;1.55;0.08;;;;;;;15.56;100.00;98679.92;1703997;82;21140;-50
2022/07/13 08:50:12;;;;;;;0.10;0.00;;;;;;;15.55;100.00;98678.69;1707559;82;20987;-50
2022/07/13 08:52:40;;;;;;;0.10;0.00;;;;;;;15.52;100.00;98683.34;1701871;82;21096;-51
2022/07/13 08:55:08;;;;;;;0.05;0.05;;;;;;;15.56;100.00;98678.56;1702811;82;21678;-51
2022/07/13 08:57:39;;;;;;;0.10;0.05;;;;;;;15.60;100.00;98683.21;1704746;82;21068;-52
2022/07/13 09:00:09;;;;;;;0.00;0.00;;;;;;;15.64;100.00;98676.05;1697829;82;21030;-53
2022/07/13 09:02:36;;;;;;;0.10;0.00;;;;;;;15.70;100.00;98672.80;1705929;82;21049;-50
2022/07/13 09:05:08;;;;;;;0.10;0.03;;;;;;;15.74;100.00;98675.59;1702262;82;21049;-51
2022/07/13 09:07:34;;;;;;;0.10;0.00;;;;;;;15.79;100.00;98676.08;1697800;82;22573;-51
2022/07/13 09:10:04;;;;;;;0.10;0.00;;;;;;;15.81;100.00;98671.39;1697479;82;21067;-51
2022/07/13 09:12:32;;;;;;;0.00;0.00;;;;;;;15.86;100.00;98680.47;1711565;82;21451;-50
2022/07/13 09:15:09;;;;;;;0.00;0.00;;;;;;;15.84;100.00;98665.67;1705229;82;22202;-52
2022/07/13 09:17:43;;;;;;;0.10;0.00;;;;;;;15.87;100.00;98669.49;1700982;82;21373;-50
2022/07/13 09:20:17;;;;;;;0.00;0.00;;;;;;;15.91;100.00;98667.87;1700833;82;21116;-52
2022/07/13 09:22:55;;;;;;;0.00;0.00;;;;;;;15.97;100.00;98667.34;1701194;82;21089;-52
2022/07/13 09:25:35;;;;;;;0.00;0.00;;;;;;;16.02;100.00;98670.00;1705081;82;21371;-52
2022/07/13 09:28:08;;;;;;;0.00;0.00;;;;;;;16.07;100.00;98666.41;1707544;82;21094;-51
2022/07/13 09:30:37;;;;;;;;;;;;;;;16.12;100.00;98667.34;1702480;82;21132;-50
2022/07/13 09:33:03;;;;;;;0.00;0.00;;;;;;;16.17;100.00;98666.42;1707103;82;21094;-50
2022/07/13 09:35:49;;;;;;;0.00;0.00;;;;;;;16.22;100.00;98669.61;1702448;82;21039;-51
2022/07/13 09:38:36;;;;;;;0.03;0.00;;;;;;;16.26;100.00;98665.13;1701429;82;21938;-50
2022/07/13 09:41:19;;;;;;;0.37;0.00;;;;;;;16.31;100.00;98657.08;1698618;82;21096;-50
2022/07/13 09:47:00;;;;;;;0.00;0.00;;;;;;;16.37;100.00;98665.53;1703018;82;21086;-49
2022/07/13 09:49:41;;;;;;;0.00;0.00;;;;;;;16.39;100.00;98666.27;1695933;82;21052;-50
2022/07/13 09:52:16;;;;;;;0.00;0.00;;;;;;;16.43;100.00;98665.47;1705322;82;21070;-48
2022/07/13 09:54:45;;;;;;;0.10;0.00;;;;;;;16.47;100.00;98656.07;1704975;82;21057;-48
2022/07/13 09:57:14;;;;;;;0.00;0.00;;;;;;;16.49;100.00;98668.52;1706433;82;20934;-49
2022/07/13 09:59:43;;;;;;;0.00;0.00;;;;;;;16.51;100.00;98669.72;1709379;82;21524;-50
2022/07/13 10:02:10;;;;;;;0.00;0.00;;;;;;;16.53;100.00;98675.39;1708155;82;21366;-50
2022/07/13 10:04:38;;;;;;;0.00;0.00;;;;;;;16.54;100.00;98668.09;1705893;82;20959;-49
2022/07/13 10:07:05;;;;;;;0.00;0.00;;;;;;;16.54;100.00;98662.66;1708110;82;20923;-49
2022/07/13 10:09:32;;;;;;;0.00;0.00;;;;;;;16.52;100.00;98661.44;1704641;82;21366;-50
2022/07/13 10:11:59;;;;;;;0.00;0.00;;;;;;;16.53;100.00;98662.30;1704695;82;21739;-50
2022/07/13 10:14:27;;;;;;;0.00;0.00;;;;;;;16.54;100.00;98656.73;1703950;82;20998;-51
2022/07/13 10:17:07;;;;;;;0.00;0.00;;;;;;;16.53;100.00;98659.59;1704165;82;20888;-51
2022/07/13 10:19:34;;;;;;;0.08;0.00;;;;;;;16.53;100.00;98656.87;1713139;82;20915;-48
2022/07/13 10:22:12;;;;;;;0.05;0.00;;;;;;;16.54;100.00;98658.09;1730084;82;21322;-52
2022/07/13 10:24:41;;;;;;;0.00;0.00;;;;;;;16.53;100.00;98653.66;1728767;82;21482;-48
2022/07/13 10:27:29;;;;;;;0.23;0.00;;;;;;;16.53;100.00;98652.80;1702961;82;21286;-49
2022/07/13 10:30:06;;;;;;;0.10;0.00;;;;;;;16.50;100.00;98639.51;1729114;82;20940;-49
2022/07/13 10:32:36;;;;;;;0.42;0.00;;;;;;;16.48;100.00;98638.28;1727528;82;20899;-49
2022/07/13 10:35:11;;;;;;;0.10;0.00;;;;;;;16.51;100.00;98635.77;1732096;82;21019;-50
2022/07/13 10:38:05;;;;;;;0.00;0.00;;;;;;;16.53;100.00;98632.42;1727055;82;21869;-50
2022/07/13 10:40:34;;;;;;;0.00;0.00;;;;;;;16.54;100.00;98640.44;1722292;82;21062;-50
2022/07/13 10:43:06;;;;;;;0.85;0.00;;;;;;;16.53;100.00;98645.50;1730152;80;21053;-50
2022/07/13 10:45:38;;;;;;;0.47;0.30;;;;;;;16.51;100.00;98639.34;1688250;83;21135;-50
2022/07/13 10:48:26;;;;;;;0.10;0.10;;;;;;;16.46;100.00;98644.34;1724777;82;21108;-50
2022/07/13 10:50:57;;;;;;;5.62;0.10;;;;;;;16.43;100.00;98640.53;1725232;82;22715;-52
2022/07/13 10:53:46;;;;;;;0.10;0.08;;;;;;;16.39;100.00;98639.11;1721714;82;21041;-50
2022/07/13 10:56:18;;;;;;;0.30;0.00;;;;;;;16.37;100.00;98642.45;1726115;81;21086;-51
2022/07/13 10:58:46;;;;;;;0.00;0.00;;;;;;;16.35;100.00;98637.64;1726858;82;21085;-51
2022/07/13 11:01:43;;;;;;;0.65;0.10;;;;;;;16.32;100.00;98650.16;1730000;82;21037;-51
2022/07/13 11:04:13;;;;;;;0.10;0.08;;;;;;;16.27;100.00;98655.98;1725187;81;21157;-51
2022/07/13 11:06:40;;;;;;;0.15;0.03;;;;;;;16.25;100.00;98659.82;1726987;82;21076;-51
2022/07/13 11:09:21;;;;;;;0.15;0.00;;;;;;;16.23;100.00;98652.33;1724885;82;21511;-51
2022/07/13 11:11:53;;;;;;;0.00;0.00;;;;;;;16.21;100.00;98666.53;1721955;82;21046;-50
2022/07/13 11:14:45;;;;;;;0.05;0.00;;;;;;;16.17;100.00;98665.93;1724920;82;21070;-50
2022/07/13 11:17:16;;;;;;;0.17;0.03;;;;;;;16.15;100.00;98671.16;1725958;82;21084;-50
2022/07/13 11:19:54;;;;;;;0.15;0.10;;;;;;;16.13;100.00;98671.78;1726032;82;21106;-51
2022/07/13 11:22:24;;;;;;;0.17;0.10;;;;;;;16.09;100.00;98669.81;1661941;85;21389;-49
2022/07/13 11:25:15;;;;;;;0.10;0.10;;;;;;;16.07;100.00;98667.77;1716372;82;21100;-51
2022/07/13 11:28:21;;;;;;;0.13;0.10;;;;;;;16.04;100.00;98656.30;1719213;82;21106;-51
2022/07/13 11:30:54;;;;;;;0.10;0.00;;;;;;;16.01;100.00;98664.20;1649756;85;21550;-52
2022/07/13 11:33:21;;;;;;;2.45;0.08;;;;;;;15.96;100.00;98658.83;1645275;85;21093;-51
2022/07/13 11:35:48;;;;;;;0.10;0.10;;;;;;;15.94;100.00;98660.31;1686374;82;21648;-53
2022/07/13 11:38:15;;;;;;;0.20;0.10;;;;;;;15.94;100.00;98660.81;1715320;81;21376;-52
2022/07/13 11:40:45;;;;;;;0.20;0.10;;;;;;;15.94;100.00;98651.31;1719932;81;21038;-53